Time;durP1;ratioP1;P1;durP2;ratioP2;P2;SDS_P1;SDS_P2;PMS_P1;PMS_P2;Temp;Humidity;BMP_temperature;BMP_pressure;BME280_temperature;BME280_humidity;BME280_pressure;Samples;Min_cycle;Max_cycle;Signal;HPM_P1;HPM_P2
2024/01/22 00:00:32;;;;;;;8.37;4.87;;;5.00;99.90;;;;;;5031669;28;20227;-87
2024/01/22 00:03:00;;;;;;;12.33;5.80;;;5.10;99.90;;;;;;5032879;28;20249;-86
2024/01/22 00:05:28;;;;;;;9.20;5.03;;;5.10;99.90;;;;;;5040796;28;20279;-87
2024/01/22 00:07:55;;;;;;;8.97;5.20;;;5.10;99.90;;;;;;5040689;28;20744;-87
2024/01/22 00:10:23;;;;;;;9.13;5.40;;;5.10;99.90;;;;;;5035814;28;20395;-85
2024/01/22 00:12:50;;;;;;;11.50;6.10;;;5.10;99.90;;;;;;5046374;28;20224;-85
2024/01/22 00:15:17;;;;;;;11.53;5.93;;;5.10;99.90;;;;;;5040501;28;20340;-85
2024/01/22 00:17:44;;;;;;;11.50;5.70;;;5.10;99.90;;;;;;5047269;28;20229;-85
2024/01/22 00:20:12;;;;;;;12.50;5.87;;;5.10;99.90;;;;;;5020596;28;20303;-86
2024/01/22 00:22:40;;;;;;;11.53;6.13;;;5.10;99.90;;;;;;5040647;28;20282;-85
2024/01/22 00:25:08;;;;;;;9.93;5.97;;;5.00;99.90;;;;;;5047528;28;20237;-85
2024/01/22 00:27:35;;;;;;;11.43;6.27;;;5.00;99.90;;;;;;5040951;28;20232;-85
2024/01/22 00:30:03;;;;;;;8.40;5.90;;;4.90;99.90;;;;;;5040290;28;20250;-85
2024/01/22 00:32:30;;;;;;;10.60;5.97;;;4.80;99.90;;;;;;5043522;28;20216;-86
2024/01/22 00:34:57;;;;;;;11.40;5.93;;;4.80;99.90;;;;;;5041401;28;20227;-86
2024/01/22 00:37:24;;;;;;;10.50;6.50;;;4.70;99.90;;;;;;5040141;28;20243;-86
2024/01/22 00:39:55;;;;;;;10.10;6.30;;;4.60;99.90;;;;;;5042393;28;20659;-85
2024/01/22 00:42:22;;;;;;;11.80;6.70;;;4.60;99.90;;;;;;5044340;28;20228;-85
2024/01/22 00:44:49;;;;;;;9.27;5.60;;;4.50;99.90;;;;;;5047277;28;20226;-85
2024/01/22 00:47:16;;;;;;;11.40;5.70;;;4.50;99.90;;;;;;5045996;28;20226;-85
2024/01/22 00:49:44;;;;;;;11.20;6.63;;;4.40;99.90;;;;;;5038542;28;20301;-83
2024/01/22 00:52:12;;;;;;;9.10;6.03;;;4.40;99.90;;;;;;5044056;28;20597;-84
2024/01/22 00:54:39;;;;;;;12.00;6.77;;;4.40;99.90;;;;;;5042660;28;20230;-84
2024/01/22 00:57:07;;;;;;;12.33;6.20;;;4.40;99.90;;;;;;5038562;28;20224;-84
2024/01/22 00:59:36;;;;;;;11.17;6.53;;;4.40;99.90;;;;;;5039103;28;20246;-84
2024/01/22 01:02:04;;;;;;;9.97;5.60;;;4.40;99.90;;;;;;5031272;28;20230;-83
2024/01/22 01:04:31;;;;;;;9.60;6.30;;;4.30;99.90;;;;;;5020629;28;20243;-83
2024/01/22 01:06:58;;;;;;;10.30;5.67;;;4.30;99.90;;;;;;5028797;28;20245;-82
2024/01/22 01:09:25;;;;;;;11.13;6.37;;;4.30;99.90;;;;;;5036558;28;20227;-83
2024/01/22 01:11:52;;;;;;;10.10;5.53;;;4.30;99.90;;;;;;5029225;28;20227;-83
2024/01/22 01:14:20;;;;;;;9.57;6.20;;;4.30;99.90;;;;;;5042979;28;20946;-83
2024/01/22 01:16:47;;;;;;;10.20;6.00;;;4.40;99.90;;;;;;5040183;28;20226;-84
2024/01/22 01:19:14;;;;;;;9.57;6.53;;;4.40;99.90;;;;;;5038972;28;20232;-83
2024/01/22 01:21:41;;;;;;;11.30;5.93;;;4.40;99.90;;;;;;5041963;28;20627;-83
2024/01/22 01:24:08;;;;;;;9.17;5.70;;;4.40;99.90;;;;;;5038467;28;20240;-84
2024/01/22 01:26:41;;;;;;;10.00;5.83;;;4.30;99.90;;;;;;5041991;28;20255;-84
2024/01/22 01:29:08;;;;;;;10.90;6.07;;;4.40;99.90;;;;;;5036282;28;20224;-85
2024/01/22 01:31:36;;;;;;;9.77;5.80;;;4.40;99.90;;;;;;5035978;28;20266;-85
2024/01/22 01:34:03;;;;;;;8.97;6.00;;;4.40;99.90;;;;;;5043211;28;20246;-85
2024/01/22 01:36:30;;;;;;;9.30;5.63;;;4.40;99.90;;;;;;5040389;28;20223;-85
2024/01/22 01:38:56;;;;;;;9.67;5.93;;;4.40;99.90;;;;;;5041537;28;20244;-84
2024/01/22 01:41:23;;;;;;;9.63;5.83;;;4.40;99.90;;;;;;5039294;28;20247;-85
2024/01/22 01:43:50;;;;;;;8.50;5.80;;;4.40;99.90;;;;;;5042253;28;20293;-85
2024/01/22 01:46:17;;;;;;;7.20;5.17;;;4.50;99.90;;;;;;5039195;28;20237;-86
2024/01/22 01:48:45;;;;;;;8.10;5.73;;;4.50;99.90;;;;;;5036832;28;20221;-85
2024/01/22 01:51:12;;;;;;;9.47;5.10;;;4.50;99.90;;;;;;5039242;28;20328;-85
2024/01/22 01:53:40;;;;;;;9.70;4.87;;;4.50;99.90;;;;;;5041323;28;20234;-85
2024/01/22 01:56:08;;;;;;;9.07;5.37;;;4.50;99.90;;;;;;5036620;28;20397;-86
2024/01/22 01:58:35;;;;;;;7.77;4.63;;;4.60;99.90;;;;;;5039950;28;20606;-87
2024/01/22 02:01:02;;;;;;;8.53;5.23;;;4.60;99.90;;;;;;5043512;28;20315;-84
2024/01/22 02:03:29;;;;;;;10.73;4.70;;;4.60;99.90;;;;;;5037783;28;20499;-85
2024/01/22 02:05:57;;;;;;;7.90;4.80;;;4.70;99.90;;;;;;5024111;28;20228;-85
2024/01/22 02:08:24;;;;;;;10.83;5.10;;;4.70;99.90;;;;;;5017030;28;20271;-85
2024/01/22 02:10:50;;;;;;;9.63;5.63;;;4.70;99.90;;;;;;5027790;28;20282;-85
2024/01/22 02:13:17;;;;;;;8.50;4.93;;;4.70;99.90;;;;;;5037027;28;20319;-84
2024/01/22 02:15:44;;;;;;;9.00;4.97;;;4.80;99.90;;;;;;5040673;28;20224;-84
2024/01/22 02:18:12;;;;;;;7.67;4.67;;;4.80;99.90;;;;;;5038655;28;20758;-85
2024/01/22 02:20:39;;;;;;;9.17;4.70;;;4.80;99.90;;;;;;5051706;28;20238;-83
2024/01/22 02:23:08;;;;;;;12.50;4.90;;;4.70;99.90;;;;;;5035809;28;20287;-83
2024/01/22 02:25:35;;;;;;;9.43;4.70;;;4.70;99.90;;;;;;5041605;28;20247;-83
2024/01/22 02:28:02;;;;;;;8.07;5.00;;;4.70;99.90;;;;;;5056063;28;20255;-83
2024/01/22 02:30:29;;;;;;;6.00;4.33;;;4.70;99.90;;;;;;5038142;28;20306;-83
2024/01/22 02:32:55;;;;;;;9.47;5.37;;;4.80;99.90;;;;;;5038976;28;20287;-85
2024/01/22 02:35:22;;;;;;;6.83;4.10;;;4.80;99.90;;;;;;5036635;28;20282;-84
2024/01/22 02:37:49;;;;;;;6.63;4.17;;;4.80;99.90;;;;;;5039246;28;20219;-84
2024/01/22 02:40:18;;;;;;;8.20;4.93;;;4.80;99.90;;;;;;5032514;28;20287;-84
2024/01/22 02:42:45;;;;;;;7.10;4.27;;;4.80;99.90;;;;;;5030617;28;20216;-83
2024/01/22 02:45:12;;;;;;;6.10;4.40;;;4.80;99.90;;;;;;5034849;28;20234;-83
2024/01/22 02:47:38;;;;;;;7.93;4.50;;;4.80;99.90;;;;;;5039459;28;20252;-84
2024/01/22 02:50:06;;;;;;;8.03;4.77;;;4.90;99.90;;;;;;5039296;28;20219;-84
2024/01/22 02:52:33;;;;;;;7.07;3.87;;;4.90;99.90;;;;;;5045157;28;20713;-84
2024/01/22 02:55:00;;;;;;;6.83;4.13;;;4.90;99.90;;;;;;5041000;28;20286;-84
2024/01/22 02:57:28;;;;;;;6.70;3.97;;;4.90;99.90;;;;;;5043702;28;20216;-84
2024/01/22 02:59:55;;;;;;;8.53;4.37;;;5.00;99.90;;;;;;5035499;28;20226;-84
2024/01/22 03:02:23;;;;;;;6.23;4.50;;;5.00;99.90;;;;;;5034812;28;20224;-84
2024/01/22 03:04:50;;;;;;;6.07;4.17;;;5.00;99.90;;;;;;5039132;28;20320;-85
2024/01/22 03:07:17;;;;;;;7.50;4.37;;;5.00;99.90;;;;;;5031827;28;20216;-84
2024/01/22 03:09:44;;;;;;;6.80;3.77;;;5.10;99.90;;;;;;5031183;28;20287;-85
2024/01/22 03:12:11;;;;;;;5.83;4.03;;;5.10;99.90;;;;;;5032716;28;20241;-83
2024/01/22 03:14:39;;;;;;;6.60;4.20;;;5.10;99.90;;;;;;5030373;28;20897;-83
2024/01/22 03:17:06;;;;;;;5.33;3.83;;;5.10;99.90;;;;;;5017428;28;20461;-83
2024/01/22 03:19:32;;;;;;;9.27;4.63;;;5.20;99.90;;;;;;5028928;28;20453;-84
2024/01/22 03:21:59;;;;;;;6.83;4.00;;;5.20;99.90;;;;;;5034220;28;20726;-84
2024/01/22 03:24:26;;;;;;;5.97;3.67;;;5.20;99.90;;;;;;5048341;28;20228;-84
2024/01/22 03:26:53;;;;;;;5.57;3.93;;;5.30;99.90;;;;;;5039672;28;20339;-84
2024/01/22 03:29:19;;;;;;;5.93;3.60;;;5.30;99.90;;;;;;5037237;28;20282;-84
2024/01/22 03:31:48;;;;;;;7.37;3.97;;;5.30;99.90;;;;;;5040625;28;20279;-84
2024/01/22 03:34:14;;;;;;;5.67;3.87;;;5.30;99.90;;;;;;5035558;28;20264;-84
2024/01/22 03:36:41;;;;;;;6.10;3.70;;;5.40;99.90;;;;;;5037077;28;20231;-83
2024/01/22 03:39:08;;;;;;;7.30;3.53;;;5.40;99.90;;;;;;5039858;28;20310;-83
2024/01/22 03:41:35;;;;;;;7.07;3.70;;;5.40;99.90;;;;;;5036449;28;20302;-83
2024/01/22 03:44:04;;;;;;;5.40;3.60;;;5.40;99.90;;;;;;5035926;28;20247;-83
2024/01/22 03:46:31;;;;;;;6.33;3.70;;;5.40;99.90;;;;;;5031320;28;20248;-82
2024/01/22 03:49:00;;;;;;;5.87;3.50;;;5.40;99.90;;;;;;5034540;28;20227;-83
2024/01/22 03:51:27;;;;;;;7.17;3.63;;;5.50;99.90;;;;;;5035252;28;20218;-83
2024/01/22 03:53:54;;;;;;;6.10;3.77;;;5.50;99.90;;;;;;5036835;28;20238;-83
2024/01/22 03:56:21;;;;;;;4.97;3.33;;;5.50;99.90;;;;;;5036379;28;20901;-85
2024/01/22 03:58:49;;;;;;;6.80;3.80;;;5.50;99.90;;;;;;5037944;28;20236;-86
2024/01/22 04:01:20;;;;;;;9.23;3.70;;;5.50;99.90;;;;;;5040843;28;20232;-83
2024/01/22 04:03:47;;;;;;;5.80;3.20;;;5.50;99.90;;;;;;5045458;28;20241;-83
2024/01/22 04:06:15;;;;;;;5.17;3.03;;;5.50;99.90;;;;;;5037891;28;20225;-83
2024/01/22 04:08:42;;;;;;;4.50;3.30;;;5.60;99.90;;;;;;5039380;28;20663;-84
2024/01/22 04:11:09;;;;;;;6.03;3.37;;;5.60;99.90;;;;;;5038970;28;20217;-84
2024/01/22 04:13:38;;;;;;;5.83;3.67;;;5.60;99.90;;;;;;5039069;28;20229;-85
2024/01/22 04:16:05;;;;;;;5.23;3.23;;;5.60;99.90;;;;;;5037178;28;20213;-85
2024/01/22 04:18:32;;;;;;;7.90;3.33;;;5.60;99.90;;;;;;5042462;28;20234;-84
2024/01/22 04:20:59;;;;;;;5.80;3.57;;;5.60;99.90;;;;;;5036610;28;20308;-85
2024/01/22 04:23:29;;;;;;;6.20;2.90;;;5.60;99.90;;;;;;5035356;28;20229;-85
2024/01/22 04:25:56;;;;;;;6.30;3.20;;;5.60;99.90;;;;;;5035232;28;20344;-86
2024/01/22 04:28:23;;;;;;;5.33;3.10;;;5.50;99.90;;;;;;5034540;28;20217;-86
2024/01/22 04:30:50;;;;;;;4.50;2.63;;;5.50;99.90;;;;;;5037207;28;21625;-85
2024/01/22 04:33:17;;;;;;;4.63;3.00;;;5.50;99.90;;;;;;5035916;28;20602;-87
2024/01/22 04:35:44;;;;;;;4.07;2.83;;;5.50;99.90;;;;;;5035387;28;20225;-85
2024/01/22 04:38:11;;;;;;;4.73;2.90;;;5.50;99.90;;;;;;5016132;28;20225;-85
2024/01/22 04:40:39;;;;;;;4.63;2.80;;;5.40;99.90;;;;;;5018988;28;20255;-84
2024/01/22 04:43:06;;;;;;;4.83;2.77;;;5.40;99.90;;;;;;5019948;28;20230;-83
2024/01/22 04:45:33;;;;;;;4.97;2.70;;;5.40;99.90;;;;;;5021316;28;20324;-84
2024/01/22 04:48:00;;;;;;;5.93;2.80;;;5.40;99.90;;;;;;5013917;28;20217;-85
2024/01/22 04:50:28;;;;;;;4.30;2.60;;;5.40;99.90;;;;;;5031920;28;20731;-85
2024/01/22 04:52:56;;;;;;;3.70;2.80;;;5.40;99.90;;;;;;5039010;28;20214;-86
2024/01/22 04:55:23;;;;;;;6.10;3.00;;;5.40;99.90;;;;;;5030732;28;20224;-87
2024/01/22 04:57:51;;;;;;;6.20;2.90;;;5.40;99.90;;;;;;5031295;28;20221;-86
2024/01/22 05:00:19;;;;;;;5.13;2.93;;;5.40;99.90;;;;;;5040212;28;20793;-83
2024/01/22 05:02:46;;;;;;;5.23;3.23;;;5.40;99.90;;;;;;5039410;28;20233;-83
2024/01/22 05:05:14;;;;;;;6.57;2.90;;;5.40;99.90;;;;;;5032873;28;20278;-83
2024/01/22 05:07:41;;;;;;;3.37;2.90;;;5.40;99.90;;;;;;5030525;28;20226;-83
2024/01/22 05:10:10;;;;;;;3.80;2.60;;;5.40;99.90;;;;;;5041655;28;20232;-82
2024/01/22 05:12:37;;;;;;;8.40;2.60;;;5.40;99.90;;;;;;5043685;28;20228;-83
2024/01/22 05:15:06;;;;;;;6.53;2.80;;;5.40;99.90;;;;;;5041678;28;20641;-83
2024/01/22 05:17:34;;;;;;;4.30;2.70;;;5.40;99.90;;;;;;5032816;28;20226;-83
2024/01/22 05:20:01;;;;;;;3.00;2.30;;;5.40;99.90;;;;;;5038086;28;20229;-85
2024/01/22 05:22:28;;;;;;;4.13;2.27;;;5.50;99.90;;;;;;5042709;28;20776;-86
2024/01/22 05:24:55;;;;;;;4.27;2.03;;;5.50;99.90;;;;;;5042640;28;20234;-86
2024/01/22 05:27:22;;;;;;;3.77;2.20;;;5.50;99.90;;;;;;5039790;28;20286;-86
2024/01/22 05:29:49;;;;;;;2.60;1.93;;;5.50;99.90;;;;;;5044105;28;20298;-86
2024/01/22 05:32:17;;;;;;;5.00;2.30;;;5.60;99.90;;;;;;5039902;28;20248;-85
2024/01/22 05:34:44;;;;;;;4.43;2.50;;;5.50;99.90;;;;;;5036456;28;20233;-85
2024/01/22 05:37:11;;;;;;;3.40;2.17;;;5.60;99.90;;;;;;5039398;28;20221;-86
2024/01/22 05:39:38;;;;;;;3.83;2.30;;;5.60;99.90;;;;;;5047505;28;20229;-85
2024/01/22 05:42:06;;;;;;;6.33;2.43;;;5.70;99.90;;;;;;5040799;28;20230;-87
2024/01/22 05:44:33;;;;;;;3.47;2.40;;;5.70;99.90;;;;;;5034555;28;20320;-86
2024/01/22 05:46:59;;;;;;;3.70;2.27;;;5.70;99.90;;;;;;5016694;28;20225;-88
2024/01/22 05:49:28;;;;;;;3.90;2.20;;;5.70;99.90;;;;;;5031581;28;20229;-86
2024/01/22 05:51:55;;;;;;;4.10;2.17;;;5.70;99.90;;;;;;5036846;28;20226;-85
2024/01/22 05:54:21;;;;;;;4.00;2.00;;;5.80;99.90;;;;;;5036262;28;20233;-86
2024/01/22 05:56:48;;;;;;;4.00;1.90;;;5.90;99.90;;;;;;5018727;28;20277;-87
2024/01/22 05:59:15;;;;;;;4.23;2.10;;;5.90;99.90;;;;;;5042793;28;20222;-87
2024/01/22 06:01:42;;;;;;;5.43;2.73;;;5.90;99.90;;;;;;5036162;28;20227;-87
2024/01/22 06:04:10;;;;;;;2.77;1.93;;;6.00;99.90;;;;;;5035508;28;20273;-86
2024/01/22 06:06:39;;;;;;;3.47;2.20;;;6.00;99.90;;;;;;5038303;28;20230;-88
2024/01/22 06:09:06;;;;;;;3.00;1.80;;;6.10;99.90;;;;;;5024415;28;20269;-86
2024/01/22 06:11:32;;;;;;;4.17;2.23;;;6.10;99.90;;;;;;5042340;28;20221;-86
2024/01/22 06:14:03;;;;;;;3.33;2.03;;;6.10;99.90;;;;;;5022625;28;20272;-86
2024/01/22 06:16:29;;;;;;;4.43;2.10;;;6.10;99.90;;;;;;5033628;28;20717;-86
2024/01/22 06:18:56;;;;;;;2.30;1.90;;;6.20;99.90;;;;;;5039902;28;20938;-86
2024/01/22 06:21:23;;;;;;;3.70;2.20;;;6.20;99.90;;;;;;5037822;28;20618;-90
2024/01/22 06:23:51;;;;;;;3.37;2.03;;;6.20;99.90;;;;;;5036917;28;20989;-84
2024/01/22 06:26:19;;;;;;;5.23;2.10;;;6.20;99.90;;;;;;5028729;28;20288;-84
2024/01/22 06:28:47;;;;;;;4.93;2.87;;;6.20;99.90;;;;;;5036951;28;20214;-84
2024/01/22 06:31:15;;;;;;;7.00;3.10;;;6.30;99.90;;;;;;5042289;28;20225;-83
2024/01/22 06:33:42;;;;;;;4.10;2.30;;;6.30;99.90;;;;;;5042440;28;20302;-83
2024/01/22 06:36:09;;;;;;;3.17;1.90;;;6.30;99.90;;;;;;5042334;28;20320;-84
2024/01/22 06:38:36;;;;;;;3.93;2.60;;;6.30;99.90;;;;;;5041744;28;20234;-83
2024/01/22 06:41:09;;;;;;;3.57;2.10;;;6.30;99.90;;;;;;5039300;28;20260;-84
2024/01/22 06:43:36;;;;;;;3.27;1.80;;;6.40;99.90;;;;;;5039560;28;20397;-86
2024/01/22 06:46:03;;;;;;;2.50;2.00;;;6.40;99.90;;;;;;5032235;28;20233;-83
2024/01/22 06:48:30;;;;;;;4.37;1.87;;;6.40;99.90;;;;;;5027928;28;20226;-84
2024/01/22 06:50:57;;;;;;;3.57;2.00;;;6.40;99.90;;;;;;5032671;28;20223;-85
2024/01/22 06:53:24;;;;;;;3.23;2.17;;;6.40;99.90;;;;;;5035710;28;20231;-84
2024/01/22 06:55:51;;;;;;;2.37;1.90;;;6.40;99.90;;;;;;5043408;28;20249;-86
2024/01/22 06:58:20;;;;;;;3.73;1.90;;;6.40;99.90;;;;;;5040848;28;20231;-85
2024/01/22 07:00:52;;;;;;;2.30;1.97;;;6.50;99.90;;;;;;5035004;28;20317;-85
2024/01/22 07:03:20;;;;;;;3.83;1.70;;;6.40;99.90;;;;;;5027747;28;20258;-84
2024/01/22 07:05:47;;;;;;;2.57;2.10;;;6.50;99.90;;;;;;5046729;28;20223;-84
2024/01/22 07:08:13;;;;;;;2.27;1.70;;;6.50;99.90;;;;;;5045394;28;20253;-85
2024/01/22 07:10:40;;;;;;;2.47;1.87;;;6.50;99.90;;;;;;5038901;28;20234;-85
2024/01/22 07:13:08;;;;;;;2.93;2.00;;;6.50;99.90;;;;;;5034649;28;20224;-85
2024/01/22 07:15:36;;;;;;;3.43;1.60;;;6.50;99.90;;;;;;5045054;28;20238;-85
2024/01/22 07:18:03;;;;;;;2.57;1.67;;;6.50;99.90;;;;;;5032952;28;20251;-86
2024/01/22 07:20:29;;;;;;;2.17;1.73;;;6.50;99.90;;;;;;5040034;28;20288;-85
2024/01/22 07:22:56;;;;;;;3.93;1.50;;;6.60;99.90;;;;;;5041944;28;20224;-86
2024/01/22 07:25:24;;;;;;;3.43;1.60;;;6.60;99.90;;;;;;5041033;28;20234;-86
2024/01/22 07:27:51;;;;;;;2.07;1.30;;;6.60;99.90;;;;;;5039869;28;20219;-84
2024/01/22 07:30:19;;;;;;;4.03;1.30;;;6.70;99.90;;;;;;5039292;28;20225;-85
2024/01/22 07:32:47;;;;;;;1.60;1.13;;;6.70;99.90;;;;;;5044722;28;20269;-87
2024/01/22 07:35:15;;;;;;;1.73;1.17;;;6.80;99.90;;;;;;5033615;28;20293;-85
2024/01/22 07:37:44;;;;;;;1.23;0.90;;;6.90;99.90;;;;;;5041112;28;20256;-88
2024/01/22 07:40:12;;;;;;;1.93;1.10;;;6.90;99.90;;;;;;5038777;28;20229;-84
2024/01/22 07:42:40;;;;;;;2.87;0.90;;;7.00;99.90;;;;;;5015701;28;20227;-87
2024/01/22 07:45:07;;;;;;;1.30;1.07;;;7.10;99.90;;;;;;5036169;28;20227;-86
2024/01/22 07:47:35;;;;;;;1.97;0.93;;;7.20;99.90;;;;;;5032223;28;20668;-87
2024/01/22 07:50:05;;;;;;;1.33;0.93;;;7.30;99.90;;;;;;5033238;28;20246;-87
2024/01/22 07:52:33;;;;;;;1.33;0.90;;;7.50;99.90;;;;;;5030712;28;20243;-87
2024/01/22 07:55:00;;;;;;;1.73;1.00;;;7.60;99.90;;;;;;5035955;28;20275;-88
2024/01/22 07:57:26;;;;;;;1.13;0.90;;;7.80;99.90;;;;;;5033254;28;20255;-87
2024/01/22 07:59:53;;;;;;;1.93;0.90;;;7.80;99.90;;;;;;5039023;28;20223;-88
2024/01/22 08:02:20;;;;;;;0.80;0.80;;;7.90;99.90;;;;;;5034912;28;20591;-86
2024/01/22 08:04:47;;;;;;;1.40;0.90;;;8.00;99.90;;;;;;5042205;28;20818;-83
2024/01/22 08:07:15;;;;;;;1.23;0.70;;;8.10;99.90;;;;;;5040535;28;20240;-86
2024/01/22 08:09:42;;;;;;;1.30;0.70;;;8.20;99.90;;;;;;5043325;28;20230;-87
2024/01/22 08:12:09;;;;;;;1.10;0.90;;;8.20;99.90;;;;;;5031876;28;20252;-84
2024/01/22 08:14:35;;;;;;;1.20;0.70;;;8.30;99.90;;;;;;5008952;28;20316;-85
2024/01/22 08:17:02;;;;;;;0.70;0.70;;;8.30;99.90;;;;;;5026247;28;20238;-86
2024/01/22 08:19:30;;;;;;;1.23;0.90;;;8.40;99.90;;;;;;5031231;28;20687;-85
2024/01/22 08:21:57;;;;;;;0.90;0.63;;;8.40;99.90;;;;;;5040460;28;20223;-86
2024/01/22 08:24:25;;;;;;;1.00;0.83;;;8.40;99.90;;;;;;5037081;28;20231;-87
2024/01/22 08:26:52;;;;;;;1.43;0.83;;;8.40;99.90;;;;;;5041247;28;20251;-86
2024/01/22 08:29:19;;;;;;;1.57;0.93;;;8.50;99.90;;;;;;5036385;28;20223;-85
2024/01/22 08:31:46;;;;;;;1.97;1.00;;;8.50;99.90;;;;;;5040597;28;20224;-86
2024/01/22 08:34:13;;;;;;;1.03;0.80;;;8.50;99.90;;;;;;5038799;28;20228;-86
2024/01/22 08:36:40;;;;;;;2.33;1.10;;;8.50;99.90;;;;;;5048356;28;20255;-86
2024/01/22 08:39:07;;;;;;;1.43;1.03;;;8.50;99.90;;;;;;5044814;28;20992;-85
2024/01/22 08:41:35;;;;;;;1.30;1.10;;;8.50;99.90;;;;;;5042384;28;20248;-89
2024/01/22 08:44:02;;;;;;;1.10;1.00;;;8.50;99.90;;;;;;5041685;28;20236;-86
2024/01/22 08:46:29;;;;;;;1.33;1.10;;;8.50;99.90;;;;;;5026798;28;20220;-86
2024/01/22 08:48:56;;;;;;;1.40;1.13;;;8.50;99.90;;;;;;5045086;28;20228;-86
2024/01/22 08:51:23;;;;;;;1.97;1.30;;;8.50;99.90;;;;;;5030799;28;20247;-88
2024/01/22 08:53:50;;;;;;;2.40;1.17;;;8.60;99.90;;;;;;5024175;28;20225;-86
2024/01/22 08:56:17;;;;;;;1.83;1.00;;;8.60;99.90;;;;;;5017923;28;20226;-86
2024/01/22 08:58:45;;;;;;;1.30;1.00;;;8.60;99.90;;;;;;5042943;28;20243;-86
2024/01/22 09:01:12;;;;;;;1.43;1.10;;;8.60;99.90;;;;;;5037178;28;20255;-87
2024/01/22 09:03:39;;;;;;;2.53;1.37;;;8.60;99.90;;;;;;5032591;28;20320;-87
2024/01/22 09:06:06;;;;;;;2.13;1.30;;;8.70;99.90;;;;;;5005731;28;20235;-86
2024/01/22 09:08:34;;;;;;;2.33;1.40;;;8.80;99.90;;;;;;5031036;28;21039;-85
2024/01/22 09:11:02;;;;;;;2.83;1.40;;;8.80;99.90;;;;;;5036347;28;20243;-86
2024/01/22 09:13:28;;;;;;;2.83;1.60;;;8.80;99.90;;;;;;5016808;28;20236;-87
2024/01/22 09:15:57;;;;;;;2.67;1.30;;;8.80;99.90;;;;;;5033380;28;20231;-87
2024/01/22 09:18:24;;;;;;;3.50;1.57;;;8.80;99.90;;;;;;5039686;28;20246;-87
2024/01/22 09:20:52;;;;;;;2.13;1.37;;;8.90;99.90;;;;;;5050811;28;20723;-86
2024/01/22 09:23:19;;;;;;;1.97;1.30;;;8.90;99.90;;;;;;5052070;28;20239;-86
2024/01/22 09:25:46;;;;;;;3.13;1.60;;;8.90;99.90;;;;;;5044503;28;20603;-87
2024/01/22 09:28:14;;;;;;;3.13;1.40;;;8.90;99.90;;;;;;5049121;28;20228;-85
2024/01/22 09:30:41;;;;;;;5.33;1.87;;;9.00;99.90;;;;;;5047229;28;20243;-85
2024/01/22 09:33:10;;;;;;;3.33;1.40;;;9.00;99.90;;;;;;5027327;28;20311;-88
2024/01/22 09:35:39;;;;;;;2.50;1.60;;;9.00;99.90;;;;;;5035018;28;20239;-87
2024/01/22 09:38:06;;;;;;;3.43;1.60;;;9.10;99.90;;;;;;5044289;28;20220;-85
2024/01/22 09:40:34;;;;;;;2.00;1.57;;;9.10;99.90;;;;;;5049420;28;20242;-86
2024/01/22 09:43:04;;;;;;;4.40;1.57;;;9.10;99.90;;;;;;5028248;28;20286;-84
2024/01/22 09:45:33;;;;;;;2.77;1.80;;;9.10;99.90;;;;;;5042955;28;20232;-87
2024/01/22 09:48:00;;;;;;;2.30;1.33;;;9.10;99.90;;;;;;5017470;28;20271;-85
2024/01/22 09:50:28;;;;;;;2.93;1.30;;;9.20;99.90;;;;;;5027377;28;20225;-85
2024/01/22 09:53:01;;;;;;;2.53;1.37;;;9.30;99.90;;;;;;5013330;28;20243;-85
2024/01/22 09:55:30;;;;;;;3.27;1.40;;;9.30;99.90;;;;;;5036940;28;20266;-86
2024/01/22 09:58:00;;;;;;;5.13;1.40;;;9.30;99.90;;;;;;5045649;28;20276;-87
2024/01/22 10:00:30;;;;;;;2.80;1.40;;;9.40;99.90;;;;;;5043375;28;20251;-87
2024/01/22 10:03:00;;;;;;;2.87;1.63;;;9.40;99.90;;;;;;5042737;28;20228;-86
2024/01/22 10:05:28;;;;;;;3.83;1.37;;;9.40;99.90;;;;;;5036273;28;20231;-86
2024/01/22 10:07:55;;;;;;;3.20;1.27;;;9.40;99.90;;;;;;5036280;28;20228;-86
2024/01/22 10:10:21;;;;;;;4.43;1.63;;;9.40;99.90;;;;;;5033774;28;20223;-85
2024/01/22 10:12:59;;;;;;;2.10;1.70;;;9.40;99.90;;;;;;5033598;28;20262;-86
2024/01/22 10:15:27;;;;;;;2.93;1.70;;;9.40;99.90;;;;;;5037710;28;20769;-87
2024/01/22 10:18:11;;;;;;;2.40;1.47;;;9.40;99.90;;;;;;5042477;28;20220;-87
2024/01/22 10:20:40;;;;;;;2.13;1.50;;;9.40;99.90;;;;;;5041217;28;20232;-88
2024/01/22 10:23:07;;;;;;;2.93;1.73;;;9.30;99.90;;;;;;5041860;28;20220;-87
2024/01/22 10:25:35;;;;;;;2.53;1.70;;;9.30;99.90;;;;;;5031563;28;20593;-87
2024/01/22 10:28:10;;;;;;;1.60;1.50;;;9.30;99.90;;;;;;5025414;28;20310;-88
2024/01/22 10:30:38;;;;;;;3.07;1.53;;;9.20;99.90;;;;;;5042370;28;20600;-87
2024/01/22 10:33:13;;;;;;;1.97;1.50;;;9.20;99.90;;;;;;5038826;28;20216;-86
2024/01/22 10:35:41;;;;;;;2.10;1.40;;;9.20;99.90;;;;;;5044709;28;20582;-86
2024/01/22 10:38:10;;;;;;;1.93;1.50;;;9.20;99.90;;;;;;5033592;28;20232;-88
2024/01/22 10:40:37;;;;;;;1.63;1.40;;;9.20;99.90;;;;;;5040227;28;20254;-88
2024/01/22 10:43:21;;;;;;;6.83;1.90;;;9.30;99.90;;;;;;5033315;28;20224;-88
2024/01/22 10:45:49;;;;;;;5.73;1.80;;;9.20;99.90;;;;;;5039372;28;20226;-87
2024/01/22 10:48:17;;;;;;;8.37;2.23;;;9.30;99.90;;;;;;5037584;28;20907;-88
2024/01/22 10:50:46;;;;;;;6.83;1.80;;;9.20;99.90;;;;;;5040785;28;20586;-88
2024/01/22 10:53:12;;;;;;;7.73;1.73;;;9.10;99.90;;;;;;5048334;28;20661;-86
2024/01/22 10:55:40;;;;;;;5.67;1.77;;;9.00;99.90;;;;;;5024881;28;20248;-86
2024/01/22 10:58:15;;;;;;;7.47;2.10;;;8.90;99.90;;;;;;5023741;28;20225;-87
2024/01/22 11:00:44;;;;;;;8.73;1.80;;;8.80;99.90;;;;;;5042309;28;20277;-87
2024/01/22 11:03:18;;;;;;;8.43;2.00;;;8.70;99.90;;;;;;5013294;28;20519;-87
2024/01/22 11:05:48;;;;;;;9.33;1.97;;;8.60;99.90;;;;;;5017952;28;20252;-87
2024/01/22 11:08:20;;;;;;;7.10;1.93;;;8.50;99.90;;;;;;5042740;28;20229;-87
2024/01/22 11:10:50;;;;;;;8.67;2.10;;;8.50;99.90;;;;;;5036052;28;20227;-88
2024/01/22 11:13:18;;;;;;;9.03;2.30;;;8.40;99.90;;;;;;5040186;28;20224;-88
2024/01/22 11:15:45;;;;;;;10.57;2.50;;;8.30;99.90;;;;;;5041295;28;20243;-89
2024/01/22 11:18:12;;;;;;;10.13;2.23;;;8.30;99.90;;;;;;5033769;28;20225;-88
2024/01/22 11:20:39;;;;;;;11.00;2.60;;;8.30;99.90;;;;;;5046488;28;20367;-88
2024/01/22 11:23:09;;;;;;;9.93;2.33;;;8.30;99.90;;;;;;5049997;28;20251;-87
2024/01/22 11:25:37;;;;;;;10.93;2.47;;;8.30;99.90;;;;;;5041543;28;20358;-85
2024/01/22 11:28:06;;;;;;;8.90;2.27;;;8.20;99.90;;;;;;5044921;28;20232;-86
2024/01/22 11:30:35;;;;;;;10.20;2.73;;;8.30;99.90;;;;;;5043475;28;20786;-86
2024/01/22 11:33:02;;;;;;;11.87;2.57;;;8.20;99.90;;;;;;5034753;28;20247;-86
2024/01/22 11:35:37;;;;;;;8.73;2.23;;;8.20;99.90;;;;;;5030208;28;20726;-86
2024/01/22 11:38:04;;;;;;;11.67;2.70;;;8.20;99.90;;;;;;5030993;28;20251;-86
2024/01/22 11:40:52;;;;;;;12.07;2.73;;;8.20;99.90;;;;;;5028273;28;20279;-85
2024/01/22 11:43:21;;;;;;;12.07;2.87;;;8.20;99.90;;;;;;5038023;28;20226;-85
2024/01/22 11:45:51;;;;;;;14.03;2.93;;;8.30;99.90;;;;;;5043776;28;20774;-86
2024/01/22 11:48:19;;;;;;;14.03;3.23;;;8.30;99.90;;;;;;5032874;28;20883;-86
2024/01/22 11:50:58;;;;;;;11.83;2.77;;;8.30;99.90;;;;;;5046430;28;20231;-86
2024/01/22 11:53:25;;;;;;;13.50;2.60;;;8.40;99.90;;;;;;5039083;28;20243;-86
2024/01/22 11:56:00;;;;;;;11.53;2.63;;;8.40;99.90;;;;;;5034516;28;20666;-86
2024/01/22 11:58:27;;;;;;;11.10;3.17;;;8.50;99.90;;;;;;5031116;28;20285;-86
2024/01/22 12:00:54;;;;;;;14.53;3.00;;;8.50;99.90;;;;;;5035797;28;20297;-85
2024/01/22 12:03:25;;;;;;;10.73;2.60;;;8.50;99.90;;;;;;5043608;28;20254;-85
2024/01/22 12:05:58;;;;;;;15.23;3.37;;;8.60;99.90;;;;;;5043097;28;20234;-86
2024/01/22 12:08:25;;;;;;;10.77;2.87;;;8.60;99.90;;;;;;5043473;28;21001;-86
2024/01/22 12:10:56;;;;;;;14.13;3.50;;;8.60;99.90;;;;;;5042848;28;20250;-86
2024/01/22 12:13:24;;;;;;;11.37;3.47;;;8.70;99.90;;;;;;5033022;28;20709;-86
2024/01/22 12:15:56;;;;;;;15.27;3.53;;;8.70;99.90;;;;;;5047739;28;21389;-87
2024/01/22 12:18:24;;;;;;;15.23;3.23;;;8.70;99.90;;;;;;5042480;28;20244;-86
2024/01/22 12:20:51;;;;;;;13.50;3.13;;;8.80;99.90;;;;;;5046206;28;21828;-85
2024/01/22 12:23:29;;;;;;;13.33;2.90;;;8.90;99.90;;;;;;5049132;28;20254;-87
2024/01/22 12:25:56;;;;;;;13.17;3.10;;;8.90;99.90;;;;;;5051361;28;20831;-87
2024/01/22 12:28:25;;;;;;;15.83;4.00;;;9.00;99.90;;;;;;5040785;28;20783;-84
2024/01/22 12:30:59;;;;;;;10.83;3.20;;;9.10;99.90;;;;;;5042763;28;20229;-86
2024/01/22 12:33:27;;;;;;;16.80;3.57;;;9.10;99.90;;;;;;5045224;28;20614;-89
2024/01/22 12:36:06;;;;;;;14.57;3.37;;;9.10;99.90;;;;;;5051147;28;20485;-86
2024/01/22 12:38:34;;;;;;;15.87;3.80;;;9.10;99.90;;;;;;5047035;28;20270;-86
2024/01/22 12:41:08;;;;;;;10.93;3.40;;;9.10;99.90;;;;;;5043219;28;20683;-86
2024/01/22 12:43:37;;;;;;;12.80;3.97;;;9.10;99.90;;;;;;5047612;28;20295;-86
2024/01/22 12:46:09;;;;;;;15.83;4.30;;;9.10;99.90;;;;;;5022634;28;20217;-85
2024/01/22 12:48:36;;;;;;;14.10;3.93;;;9.10;99.90;;;;;;5032327;28;20319;-86
2024/01/22 12:51:04;;;;;;;13.93;3.77;;;9.10;99.90;;;;;;5021339;28;20229;-85
2024/01/22 12:53:31;;;;;;;19.27;4.10;;;9.10;99.90;;;;;;5041058;28;20228;-85
2024/01/22 12:55:58;;;;;;;14.33;3.70;;;9.10;99.90;;;;;;5044023;28;20232;-86
2024/01/22 12:58:25;;;;;;;17.93;4.17;;;9.10;99.90;;;;;;5041363;28;20864;-85